Nearby METAR Reports


KSYR - Syracuse, New York, USA
Distance from station: SE 5mi, 8km
Updated: Wed, 29-Mar-2017 8:54am EDT
Clear
Clear
 Wind from NNW
Wind: NNW 8 mph , 13 km/h
Temperature: 37°F , 3°C
Wind Chill: 31°F , -1°C
Dew Point: 30°F , -1°C
Humidity: 75%
Barometer: 30.21 inHg , 1023 hPa
Clouds: Clear
Visibility: 10 miles , 16 km
2017/03/29 12:54 KSYR 291254Z 33007KT 10SM CLR 03/M01 A3021 RMK AO2 SLP230 T00331006
KFZY - Fulton, New York, USA
Distance from station: NW 17mi, 27km
Updated: Wed, 29-Mar-2017 8:54am EDT
Clear
Clear
 Wind from N
Wind: N 10 mph , 17 km/h
Temperature: 37°F , 3°C
Wind Chill: 30°F , -1°C
Dew Point: 30°F , -1°C
Humidity: 75%
Barometer: 30.22 inHg , 1023.4 hPa
Clouds: Clear
Visibility: 10 miles , 16 km
2017/03/29 12:54 KFZY 291254Z AUTO 01009KT 10SM CLR 03/M01 A3022 RMK AO2 SLP238 T00331011
 
KRME - Rome/Griffiss Af, New York, USA
Distance from station: E 39mi, 62km
Updated: Wed, 29-Mar-2017 8:53am EDT
Overcast
Overcast
 Wind from WNW
Wind: WNW 6 mph , 9 km/h
Temperature: 34°F , 1°C
Wind Chill: 29°F , -2°C
Dew Point: 32°F , 0°C
Humidity: 93%
Barometer: 30.20 inHg , 1022.7 hPa
Clouds: Overcast
Visibility: 10 miles , 16 km
Cloud details: Mostly cloudy 2500 ft
Overcast 3100 ft
2017/03/29 12:53 KRME 291253Z 30005KT 10SM BKN025 OVC031 01/00 A3020 RMK AO2 SLP229 T00110000
KITH - Ithaca/Tompkins, New York, USA
Distance from station: SSW 51mi, 82km
Updated: Wed, 29-Mar-2017 8:56am EDT
Partly cloudy
Partly cloudy
 Wind from NW
Wind: NW 8 mph , 13 km/h
Temperature: 36°F , 2°C
Wind Chill: 30°F , -1°C
Dew Point: 34°F , 1°C
Humidity: 93%
Barometer: 30.18 inHg , 1022 hPa
Clouds: Partly cloudy
Visibility: 10 miles , 16 km
Cloud details: Partly cloudy 1500 ft
2017/03/29 12:56 KITH 291256Z 32007KT 10SM SCT015 02/01 A3018 RMK AO2 SLP230 T00220011
 
KART - Watertown, New York, USA
Distance from station: N 56mi, 91km
Updated: Wed, 29-Mar-2017 8:56am EDT
Partly cloudy
Partly cloudy
 Wind from N
Wind: N 5 mph , 7 km/h
Temperature: 36°F , 2°C
Wind Chill: 32°F , 0°C
Dew Point: 30°F , -1°C
Humidity: 81%
Barometer: 30.22 inHg , 1023.4 hPa
Clouds: Partly cloudy
Visibility: 10 miles , 16 km
Cloud details: Partly cloudy 5000 ft
2017/03/29 12:56 KART 291256Z AUTO 35004KT 10SM SCT050 02/M01 A3022 RMK AO2 SLP238 T00171006
KPEO - Penn Yan, New York, USA
Distance from station: SW 58mi, 93km
Updated: Wed, 29-Mar-2017 8:53am EDT
Clear
Clear
 Wind from N
Wind: N 8 mph , 13 km/h
Temperature: 39°F , 4°C
Wind Chill: 33°F , 1°C
Dew Point: 28°F , -2°C
Humidity: 65%
Barometer: 30.21 inHg , 1023 hPa
Clouds: Clear
Visibility: 10 miles , 16 km
2017/03/29 12:53 KPEO 291253Z AUTO 36007KT 10SM CLR 04/M02 A3021 RMK AO2 SLP237 T00391017
 
KGTB - Fort Drum/Wheele, New York, USA
Distance from station: NNE 64mi, 102km
Updated: Wed, 29-Mar-2017 8:58am EDT
Overcast
Overcast
 Wind from NW
Wind: NW 5 mph , 7 km/h
Temperature: 32°F , 0°C
Wind Chill: 27°F , -3°C
Dew Point: 28°F , -2°C
Humidity: 87%
Barometer: 30.19 inHg , 1022.4 hPa
Clouds: Overcast
Visibility: 10 miles , 16 km
Cloud details: Overcast 4600 ft
2017/03/29 12:58 KGTB 291258Z AUTO 31004KT 10SM OVC046 00/M02 A3019 RMK AO2 SLP231 T10001020 $
CWQP - Point Petre (mar, Ontario, Canada
Distance from station: NW 67mi, 107km
Updated: Wed, 29-Mar-2017 8:00am EDT

 Wind from N
Wind: N 8 mph , 13 km/h
Temperature: 34°F , 1°C
Wind Chill: 27°F , -3°C
Dew Point: 28°F , -2°C
Humidity: 81%
2017/03/29 12:00 CWQP 291200Z AUTO 36007KT 01/M02 RMK AO1 SOG 01 3015 SLP243 T00131016
 
KBGM - Binghamton, New York, USA
Distance from station: S 67mi, 107km
Updated: Wed, 29-Mar-2017 8:53am EDT
Clear
Clear
 Wind from N
Wind: N 13 mph , 20 km/h
Temperature: 36°F , 2°C
Wind Chill: 27°F , -3°C
Dew Point: 30°F , -1°C
Humidity: 81%
Barometer: 30.12 inHg , 1020 hPa
Clouds: Clear
Visibility: 10 miles , 16 km
2017/03/29 12:53 KBGM 291253Z 01011KT 10SM CLR 02/M01 A3012 RMK AO2 SLP212 T00221011
CYGK - Kingston Arpt (m, Ontario, Canada
Distance from station: NNW 75mi, 121km
Updated: Wed, 29-Mar-2017 9:00am EDT
Mostly cloudy
Mostly cloudy
 Wind from NNW
Wind: NNW 5 mph , 7 km/h
Temperature: 34°F , 1°C
Wind Chill: 29°F , -2°C
Dew Point: 28°F , -2°C
Humidity: 81%
Barometer: 30.23 inHg , 1023.7 hPa
Clouds: Mostly cloudy
Visibility: 15 miles , 24 km
Cloud details: Mostly cloudy 5900 ft
2017/03/29 13:00 CYGK 291300Z 34004KT 15SM BKN059 01/M02 A3023 RMK SC7 SLP243